Time;durP1;ratioP1;P1;durP2;ratioP2;P2;SDS_P1;SDS_P2;PMS_P1;PMS_P2;Temp;Humidity;BMP_temperature;BMP_pressure;BME280_temperature;BME280_humidity;BME280_pressure;Samples;Min_cycle;Max_cycle;Signal;HPM_P1;HPM_P2
2022/08/27 00:02:21;;;;;;;;;;;;;;;24.33;57.82;99273.62;4351212;32;33160;-84
2022/08/27 00:04:56;;;;;;;;;;;;;;;24.25;58.50;99271.75;4361975;32;33785;-85
2022/08/27 00:07:25;;;;;;;;;;;;;;;24.11;58.88;99275.94;4364006;32;33138;-84
2022/08/27 00:09:53;;;;;;;;;;;;;;;24.17;58.76;99274.47;4357709;32;33426;-85
2022/08/27 00:12:21;;;;;;;;;;;;;;;23.94;59.45;99274.25;4356638;32;34239;-85
2022/08/27 00:14:49;;;;;;;;;;;;;;;24.14;58.87;99278.34;4351221;32;33090;-85
2022/08/27 00:17:17;;;;;;;;;;;;;;;24.14;58.86;99274.78;4364099;32;35064;-85
2022/08/27 00:19:45;;;;;;;;;;;;;;;24.06;58.89;99275.63;4348461;32;33136;-85
2022/08/27 00:22:13;;;;;;;;;;;;;;;24.10;58.89;99282.38;4362061;32;34269;-85
2022/08/27 00:24:41;;;;;;;;;;;;;;;24.09;58.76;99280.69;4363439;32;34853;-85
2022/08/27 00:27:15;;;;;;;;;;;;;;;23.99;58.97;99277.31;4361828;32;34362;-85
2022/08/27 00:29:45;;;;;;;;;;;;;;;23.99;59.00;99280.00;4361993;32;33017;-85
2022/08/27 00:32:13;;;;;;;;;;;;;;;23.96;59.06;99277.63;4339359;32;33809;-85
2022/08/27 00:34:41;;;;;;;;;;;;;;;23.99;58.85;99274.59;4373409;32;33489;-85
2022/08/27 00:37:09;;;;;;;;;;;;;;;23.82;59.08;99280.97;4346455;32;34457;-85
2022/08/27 00:39:36;;;;;;;;;;;;;;;23.84;58.60;99279.81;4364160;32;32733;-85
2022/08/27 00:42:04;;;;;;;;;;;;;;;23.77;58.78;99282.28;4349946;32;32724;-85
2022/08/27 00:44:32;;;;;;;;;;;;;;;23.88;58.49;99286.56;4374007;32;33934;-85
2022/08/27 00:47:03;;;;;;;;;;;;;;;23.86;58.65;99282.31;4373527;32;33229;-85
2022/08/27 00:49:44;;;;;;;;;;;;;;;23.79;58.66;99275.91;4372065;32;32638;-83
2022/08/27 00:52:24;;;;;;;;;;;;;;;23.58;58.97;99279.84;4365535;32;34349;-83
2022/08/27 00:54:52;;;;;;;;;;;;;;;23.76;58.36;99279.78;4380308;32;34837;-83
2022/08/27 00:57:20;;;;;;;;;;;;;;;23.66;58.60;99282.59;4366409;32;33567;-83
2022/08/27 00:59:48;;;;;;;;;;;;;;;23.46;59.40;99290.06;4379196;32;33613;-84
2022/08/27 01:02:19;;;;;;;;;;;;;;;23.61;58.77;99278.69;4366484;32;34154;-83
2022/08/27 01:05:08;;;;;;;;;;;;;;;23.40;59.50;99284.47;4374834;32;34528;-84
2022/08/27 01:07:37;;;;;;;;;;;;;;;23.44;59.79;99293.94;4384150;32;34061;-84
2022/08/27 01:10:06;;;;;;;;;;;;;;;23.35;59.85;99290.34;4378256;32;33613;-83
2022/08/27 01:12:33;;;;;;;;;;;;;;;23.46;59.38;99292.78;4378816;32;34078;-84
2022/08/27 01:15:04;;;;;;;;;;;;;;;23.50;59.27;99293.31;4366099;32;32834;-84
2022/08/27 01:17:35;;;;;;;;;;;;;;;23.36;59.70;99292.06;4366242;32;34324;-85
2022/08/27 01:20:08;;;;;;;;;;;;;;;23.22;60.41;99296.19;4365743;32;32574;-84
2022/08/27 01:22:39;;;;;;;;;;;;;;;23.25;60.43;99293.16;4365965;32;33700;-85
2022/08/27 01:25:09;;;;;;;;;;;;;;;23.23;60.43;99297.88;4374506;32;33018;-85
2022/08/27 01:27:38;;;;;;;;;;;;;;;22.86;60.87;99291.87;4364500;32;33309;-84
2022/08/27 01:30:07;;;;;;;;;;;;;;;23.19;58.98;99292.97;4374314;32;33489;-84
2022/08/27 01:32:37;;;;;;;;;;;;;;;23.14;59.16;99298.00;4378007;32;34075;-84
2022/08/27 01:35:06;;;;;;;;;;;;;;;22.99;59.40;99303.12;4388891;32;34011;-84
2022/08/27 01:37:33;;;;;;;;;;;;;;;22.95;59.19;99297.19;4372052;32;34127;-84
2022/08/27 01:40:03;;;;;;;;;;;;;;;22.98;59.15;99298.75;4365088;32;31919;-84
2022/08/27 01:42:32;;;;;;;;;;;;;;;23.11;58.67;99299.13;4380421;32;34285;-85
2022/08/27 01:45:11;;;;;;;;;;;;;;;23.40;57.37;99308.72;4376528;32;34555;-84
2022/08/27 01:47:39;;;;;;;;;;;;;;;22.87;58.90;99297.09;4379418;32;33817;-84
2022/08/27 01:50:11;;;;;;;;;;;;;;;22.82;59.31;99303.97;4379496;32;33359;-83
2022/08/27 01:52:39;;;;;;;;;;;;;;;22.94;58.96;99308.13;4380186;32;33705;-83
2022/08/27 01:55:08;;;;;;;;;;;;;;;22.52;60.49;99311.47;4356811;32;33274;-83
2022/08/27 01:57:35;;;;;;;;;;;;;;;22.54;60.83;99303.25;4374672;32;33002;-83
2022/08/27 02:00:35;;;;;;;;;;;;;;;22.80;59.73;99314.06;4369392;32;32315;-83
2022/08/27 02:03:03;;;;;;;;;;;;;;;22.72;59.81;99310.28;4375737;32;34428;-83
2022/08/27 02:05:31;;;;;;;;;;;;;;;22.68;60.13;99313.44;4373499;32;33046;-83
2022/08/27 02:08:12;;;;;;;;;;;;;;;22.64;60.28;99312.06;4381100;32;34433;-83
2022/08/27 02:10:39;;;;;;;;;;;;;;;22.84;59.68;99308.22;4377873;32;33000;-84
2022/08/27 02:13:08;;;;;;;;;;;;;;;22.82;59.84;99307.50;4367578;32;34313;-83
2022/08/27 02:15:36;;;;;;;;;;;;;;;22.80;59.80;99303.28;4373979;32;33085;-83
2022/08/27 02:18:03;;;;;;;;;;;;;;;22.64;60.38;99312.06;4367465;32;34160;-83
2022/08/27 02:20:31;;;;;;;;;;;;;;;22.83;59.90;99308.34;4367572;32;32677;-83
2022/08/27 02:23:01;;;;;;;;;;;;;;;22.79;60.08;99304.28;4367964;32;32845;-83
2022/08/27 02:25:29;;;;;;;;;;;;;;;22.75;60.43;99299.22;4367417;32;34284;-83
2022/08/27 02:27:59;;;;;;;;;;;;;;;22.67;60.69;99301.00;4380108;32;34083;-86
2022/08/27 02:30:27;;;;;;;;;;;;;;;22.77;60.26;99300.91;4377779;32;34391;-84
2022/08/27 02:32:55;;;;;;;;;;;;;;;22.68;60.27;99300.84;4366920;32;33854;-84
2022/08/27 02:35:23;;;;;;;;;;;;;;;22.66;60.16;99302.84;4378983;32;32816;-84
2022/08/27 02:37:52;;;;;;;;;;;;;;;22.39;60.68;99294.88;4379931;32;33056;-84
2022/08/27 02:40:20;;;;;;;;;;;;;;;22.39;60.81;99292.19;4352101;32;33084;-84
2022/08/27 02:42:47;;;;;;;;;;;;;;;22.27;60.96;99298.81;4355975;32;33949;-84
2022/08/27 02:45:16;;;;;;;;;;;;;;;22.01;61.86;99293.31;4377203;32;33823;-84
2022/08/27 02:47:44;;;;;;;;;;;;;;;22.20;61.18;99298.56;4367142;32;33467;-84
2022/08/27 02:50:12;;;;;;;;;;;;;;;22.30;61.24;99302.03;4355032;32;33898;-84
2022/08/27 02:52:44;;;;;;;;;;;;;;;22.05;61.57;99300.91;4376888;32;35006;-84
2022/08/27 02:55:21;;;;;;;;;;;;;;;22.35;60.68;99298.88;4380534;32;34378;-84
2022/08/27 02:57:50;;;;;;;;;;;;;;;22.22;61.01;99304.66;4367624;32;34189;-84
2022/08/27 03:00:18;;;;;;;;;;;;;;;22.10;61.36;99297.78;4372262;32;33195;-84
2022/08/27 03:02:47;;;;;;;;;;;;;;;22.13;61.29;99298.34;4367367;32;33463;-84
2022/08/27 03:05:17;;;;;;;;;;;;;;;22.25;60.90;99301.66;4366852;32;35110;-84
2022/08/27 03:07:45;;;;;;;;;;;;;;;21.97;61.56;99292.75;4379506;32;33650;-84
2022/08/27 03:10:14;;;;;;;;;;;;;;;21.95;61.37;99292.09;4367650;32;33316;-84
2022/08/27 03:12:43;;;;;;;;;;;;;;;21.88;61.52;99299.03;4367058;32;32907;-84
2022/08/27 03:15:13;;;;;;;;;;;;;;;21.56;62.41;99297.69;4357357;32;33902;-83
2022/08/27 03:20:32;;;;;;;;;;;;;;;21.95;61.29;99295.62;4372585;32;34288;-82
2022/08/27 03:22:59;;;;;;;;;;;;;;;21.85;62.39;99304.75;4364503;32;32890;-83
2022/08/27 03:25:27;;;;;;;;;;;;;;;21.92;61.99;99297.75;4367113;32;33657;-82
2022/08/27 03:27:54;;;;;;;;;;;;;;;21.99;61.87;99307.75;4367706;32;33062;-82
2022/08/27 03:30:22;;;;;;;;;;;;;;;21.81;62.43;99303.34;4379530;32;33069;-82
2022/08/27 03:32:50;;;;;;;;;;;;;;;22.05;61.74;99303.59;4367429;32;32895;-83
2022/08/27 03:35:18;;;;;;;;;;;;;;;21.90;61.98;99302.44;4379538;32;33377;-83
2022/08/27 03:37:46;;;;;;;;;;;;;;;22.02;61.58;99295.00;4377979;32;33146;-83
2022/08/27 03:40:13;;;;;;;;;;;;;;;22.00;61.53;99297.84;4366836;32;33423;-83
2022/08/27 03:42:41;;;;;;;;;;;;;;;21.90;61.75;99302.44;4379442;32;34836;-83
2022/08/27 03:45:09;;;;;;;;;;;;;;;21.90;61.83;99302.44;4379378;32;35070;-84
2022/08/27 03:47:37;;;;;;;;;;;;;;;21.78;62.26;99303.62;4366827;32;33036;-84
2022/08/27 03:50:06;;;;;;;;;;;;;;;21.82;62.04;99299.66;4367054;32;32309;-84
2022/08/27 03:52:33;;;;;;;;;;;;;;;21.83;62.06;99301.34;4366821;32;34638;-84
2022/08/27 03:55:03;;;;;;;;;;;;;;;21.78;62.30;99304.47;4366918;32;33482;-84
2022/08/27 03:57:39;;;;;;;;;;;;;;;21.90;61.90;99302.44;4378770;32;34820;-84
2022/08/27 04:00:12;;;;;;;;;;;;;;;21.78;62.41;99311.69;4366915;32;32556;-84
2022/08/27 04:02:42;;;;;;;;;;;;;;;21.88;62.02;99310.62;4380051;32;33790;-84
2022/08/27 04:05:11;;;;;;;;;;;;;;;21.75;62.52;99310.19;4379497;32;34216;-84
2022/08/27 04:07:44;;;;;;;;;;;;;;;21.61;63.20;99314.22;4363832;32;32861;-84
2022/08/27 04:10:23;;;;;;;;;;;;;;;21.63;63.01;99306.84;4365524;32;32710;-84
2022/08/27 04:12:52;;;;;;;;;;;;;;;21.60;62.98;99309.84;4365318;32;33285;-84
2022/08/27 04:15:23;;;;;;;;;;;;;;;21.58;62.91;99306.44;4355249;32;33503;-83
2022/08/27 04:17:52;;;;;;;;;;;;;;;21.63;62.95;99301.47;4378437;32;34416;-84
2022/08/27 04:20:21;;;;;;;;;;;;;;;21.80;62.70;99307.03;4365674;32;32302;-83
2022/08/27 04:23:03;;;;;;;;;;;;;;;21.91;62.09;99294.22;4379437;32;34211;-84
2022/08/27 04:25:30;;;;;;;;;;;;;;;21.90;62.29;99299.75;4377833;32;34073;-84
2022/08/27 04:27:58;;;;;;;;;;;;;;;21.82;62.66;99308.56;4369261;32;33449;-84
2022/08/27 04:30:26;;;;;;;;;;;;;;;21.72;63.21;99305.09;4376824;32;33494;-85
2022/08/27 04:32:54;;;;;;;;;;;;;;;21.88;62.57;99315.16;4366253;32;34464;-85
2022/08/27 04:35:22;;;;;;;;;;;;;;;21.75;63.36;99320.94;4378351;32;33424;-85
2022/08/27 04:37:53;;;;;;;;;;;;;;;21.97;62.82;99307.03;4372516;32;33180;-84
2022/08/27 04:40:20;;;;;;;;;;;;;;;21.98;62.63;99305.19;4364769;32;33422;-85
2022/08/27 04:42:48;;;;;;;;;;;;;;;21.88;62.81;99305.25;4376244;32;32836;-84
2022/08/27 04:45:18;;;;;;;;;;;;;;;22.07;62.35;99304.28;4364527;32;33343;-84
2022/08/27 04:47:46;;;;;;;;;;;;;;;22.10;62.35;99308.53;4368010;32;33213;-84
2022/08/27 04:50:14;;;;;;;;;;;;;;;22.11;62.29;99305.72;4366397;32;32408;-84
2022/08/27 04:52:44;;;;;;;;;;;;;;;22.24;61.90;99300.81;4354540;32;33240;-84
2022/08/27 04:55:16;;;;;;;;;;;;;;;22.24;62.02;99300.81;4379216;32;34275;-85
2022/08/27 04:57:48;;;;;;;;;;;;;;;22.33;61.67;99303.56;4379219;32;33444;-84
2022/08/27 05:00:16;;;;;;;;;;;;;;;22.33;61.64;99303.56;4379006;32;32769;-84
2022/08/27 05:02:44;;;;;;;;;;;;;;;22.42;61.12;99308.03;4364509;32;33781;-84
2022/08/27 05:05:12;;;;;;;;;;;;;;;22.52;60.82;99311.47;4363801;32;33283;-84
2022/08/27 05:07:44;;;;;;;;;;;;;;;22.71;60.55;99310.47;4366150;32;34115;-84
2022/08/27 05:10:19;;;;;;;;;;;;;;;22.50;61.21;99316.16;4365309;32;32148;-84
2022/08/27 05:12:48;;;;;;;;;;;;;;;22.69;60.92;99313.31;4390770;32;34931;-84
2022/08/27 05:15:17;;;;;;;;;;;;;;;22.66;61.12;99310.94;4367508;32;34191;-84
2022/08/27 05:17:46;;;;;;;;;;;;;;;22.84;60.53;99308.22;4367946;32;34001;-85
2022/08/27 05:20:18;;;;;;;;;;;;;;;22.91;60.44;99306.59;4369561;32;33925;-85
2022/08/27 05:22:49;;;;;;;;;;;;;;;23.25;60.36;99303.94;4368323;32;33611;-84
2022/08/27 05:25:19;;;;;;;;;;;;;;;23.05;60.45;99309.72;4368954;32;34310;-85
2022/08/27 05:27:48;;;;;;;;;;;;;;;23.19;60.03;99318.03;4378231;32;35166;-85
2022/08/27 05:30:22;;;;;;;;;;;;;;;23.52;59.84;99307.44;4381361;32;33374;-84
2022/08/27 05:32:52;;;;;;;;;;;;;;;23.70;59.33;99310.94;4367686;32;32864;-84
2022/08/27 05:35:20;;;;;;;;;;;;;;;23.71;59.19;99307.22;4376017;32;34625;-84
2022/08/27 05:37:50;;;;;;;;;;;;;;;23.57;59.44;99310.50;4378189;32;33990;-84
2022/08/27 05:40:18;;;;;;;;;;;;;;;23.80;59.21;99312.63;4367180;32;33312;-84
2022/08/27 05:42:46;;;;;;;;;;;;;;;23.81;59.12;99309.78;4366932;32;35298;-84
2022/08/27 05:45:18;;;;;;;;;;;;;;;23.93;58.95;99308.47;4363427;32;34513;-84
2022/08/27 05:47:47;;;;;;;;;;;;;;;24.37;57.82;99302.00;4364194;32;34174;-84
2022/08/27 05:50:17;;;;;;;;;;;;;;;24.53;58.49;99307.41;4366127;32;32555;-84
2022/08/27 05:52:51;;;;;;;;;;;;;;;24.47;58.28;99313.47;4378745;32;34588;-84
2022/08/27 05:55:21;;;;;;;;;;;;;;;24.76;57.31;99302.16;4359189;32;33176;-84
2022/08/27 05:57:49;;;;;;;;;;;;;;;24.90;57.14;99303.34;4376023;32;34460;-84
2022/08/27 06:03:19;;;;;;;;;;;;;;;25.23;56.23;99302.28;4385295;32;34217;-84
2022/08/27 06:05:58;;;;;;;;;;;;;;;25.35;55.79;99304.59;4380102;32;32793;-85
2022/08/27 06:08:28;;;;;;;;;;;;;;;25.47;55.51;99301.34;4368077;32;35020;-84
2022/08/27 06:11:00;;;;;;;;;;;;;;;25.63;54.23;99299.59;4377383;32;32854;-84
2022/08/27 06:13:30;;;;;;;;;;;;;;;25.80;53.79;99301.25;4361465;32;35007;-84
2022/08/27 06:16:02;;;;;;;;;;;;;;;25.75;53.93;99301.78;4379389;32;33621;-84
2022/08/27 06:18:34;;;;;;;;;;;;;;;25.65;52.74;99303.81;4369295;32;34454;-84
2022/08/27 06:21:02;;;;;;;;;;;;;;;25.88;51.26;99308.50;4368413;32;32518;-84
2022/08/27 06:23:36;;;;;;;;;;;;;;;26.32;51.53;99297.03;4380993;32;33865;-84
2022/08/27 06:26:05;;;;;;;;;;;;;;;26.51;51.85;99308.25;4367616;32;35063;-84
2022/08/27 06:28:36;;;;;;;;;;;;;;;26.58;49.36;99308.34;4368137;32;33256;-84
2022/08/27 06:31:34;;;;;;;;;;;;;;;26.90;48.23;99309.09;4377194;32;33304;-84
2022/08/27 06:34:05;;;;;;;;;;;;;;;26.64;47.08;99315.78;4385619;32;34901;-84
2022/08/27 06:36:35;;;;;;;;;;;;;;;27.19;47.27;99313.75;4381098;32;34976;-86
2022/08/27 06:39:14;;;;;;;;;;;;;;;27.24;47.33;99324.88;4380861;32;34701;-86
2022/08/27 06:41:44;;;;;;;;;;;;;;;27.43;46.09;99326.19;4380921;32;34230;-86
2022/08/27 06:44:12;;;;;;;;;;;;;;;27.45;46.29;99318.72;4368077;32;33279;-86
2022/08/27 06:46:40;;;;;;;;;;;;;;;27.62;44.32;99322.06;4376345;32;34918;-86
2022/08/27 06:49:22;;;;;;;;;;;;;;;27.60;44.76;99324.97;4381809;32;35245;-87
2022/08/27 06:51:52;;;;;;;;;;;;;;;27.37;44.25;99324.25;4368037;32;32988;-86
2022/08/27 06:54:21;;;;;;;;;;;;;;;27.43;43.33;99324.31;4370313;32;33587;-86
2022/08/27 06:56:51;;;;;;;;;;;;;;;27.78;40.66;99328.19;4368259;32;34194;-85
2022/08/27 06:59:20;;;;;;;;;;;;;;;28.13;41.07;99333.81;4368373;32;33648;-85
2022/08/27 07:01:49;;;;;;;;;;;;;;;28.03;40.24;99333.28;4380345;32;33208;-85
2022/08/27 07:04:22;;;;;;;;;;;;;;;28.07;40.88;99334.56;4381256;32;34887;-85
2022/08/27 07:07:01;;;;;;;;;;;;;;;28.57;40.61;99330.94;4369166;32;33004;-84
2022/08/27 07:09:31;;;;;;;;;;;;;;;28.57;38.26;99335.53;4380545;32;33214;-84
2022/08/27 07:11:59;;;;;;;;;;;;;;;28.70;38.30;99335.66;4377829;32;33505;-85
2022/08/27 07:14:28;;;;;;;;;;;;;;;28.62;39.08;99330.37;4353078;32;33343;-84
2022/08/27 07:17:09;;;;;;;;;;;;;;;28.80;38.87;99336.19;4367161;32;34802;-85
2022/08/27 07:19:48;;;;;;;;;;;;;;;28.99;38.75;99344.72;4379464;32;34134;-85
2022/08/27 07:22:23;;;;;;;;;;;;;;;28.99;39.22;99344.72;4368432;32;32451;-85
2022/08/27 07:24:52;;;;;;;;;;;;;;;28.99;38.72;99344.72;4380349;32;33914;-85
2022/08/27 07:27:26;;;;;;;;;;;;;;;29.10;37.86;99336.00;4380005;32;34380;-86
2022/08/27 07:29:57;;;;;;;;;;;;;;;29.19;38.44;99345.72;4367997;32;32609;-88
2022/08/27 07:32:59;;;;;;;;;;;;;;;29.38;37.10;99340.59;4367400;32;33691;-86
2022/08/27 07:35:35;;;;;;;;;;;;;;;29.75;34.76;99339.38;4385563;32;33395;-86
2022/08/27 07:38:16;;;;;;;;;;;;;;;29.36;35.57;99342.69;4383858;32;35067;-85
2022/08/27 07:40:48;;;;;;;;;;;;;;;29.28;35.85;99351.84;4380685;32;34531;-89
2022/08/27 07:46:05;;;;;;;;;;;;;;;29.77;34.14;99337.31;4381152;32;34906;-89
2022/08/27 07:48:42;;;;;;;;;;;;;;;29.80;33.32;99342.34;4380731;32;35018;-85
2022/08/27 07:51:19;;;;;;;;;;;;;;;29.82;34.35;99345.72;4362047;32;33224;-86
2022/08/27 07:53:47;;;;;;;;;;;;;;;29.71;33.19;99343.53;4364029;32;32089;-84
2022/08/27 07:56:15;;;;;;;;;;;;;;;29.66;34.93;99352.31;4370092;32;33012;-84
2022/08/27 07:58:43;;;;;;;;;;;;;;;29.54;34.82;99354.78;4379996;32;34258;-84
2022/08/27 08:01:13;;;;;;;;;;;;;;;29.63;33.57;99341.84;4367540;32;34122;-84
2022/08/27 08:03:41;;;;;;;;;;;;;;;30.07;34.17;99343.28;4376546;32;33947;-84
2022/08/27 08:06:13;;;;;;;;;;;;;;;30.15;34.24;99334.97;4367516;32;33322;-84
2022/08/27 08:08:42;;;;;;;;;;;;;;;30.21;32.46;99338.75;4367469;32;34307;-84
2022/08/27 08:11:15;;;;;;;;;;;;;;;29.91;33.35;99338.19;4372021;32;33240;-84
2022/08/27 08:13:46;;;;;;;;;;;;;;;30.16;34.04;99344.81;4384617;32;32313;-85
2022/08/27 08:16:18;;;;;;;;;;;;;;;30.50;33.86;99349.31;4377285;32;34497;-84
2022/08/27 08:18:48;;;;;;;;;;;;;;;30.79;31.82;99342.66;4373614;32;34273;-84
2022/08/27 08:21:15;;;;;;;;;;;;;;;30.47;32.89;99343.41;4372413;32;34978;-84
2022/08/27 08:23:48;;;;;;;;;;;;;;;31.02;31.66;99346.88;4367952;32;34237;-84
2022/08/27 08:26:22;;;;;;;;;;;;;;;31.16;31.11;99347.69;4354688;32;34917;-84
2022/08/27 08:28:50;;;;;;;;;;;;;;;31.16;31.64;99348.53;4375336;32;34290;-84
2022/08/27 08:31:29;;;;;;;;;;;;;;;31.03;31.23;99340.34;4380649;32;33862;-85
2022/08/27 08:33:58;;;;;;;;;;;;;;;31.22;32.50;99346.84;4364620;32;33561;-84
2022/08/27 08:36:27;;;;;;;;;;;;;;;31.39;31.65;99344.56;4367485;32;34175;-84
2022/08/27 08:38:55;;;;;;;;;;;;;;;31.42;32.78;99344.94;4378293;32;33342;-84
2022/08/27 08:41:24;;;;;;;;;;;;;;;31.62;30.18;99353.09;4388256;32;34521;-85
2022/08/27 08:43:53;;;;;;;;;;;;;;;31.53;30.16;99343.47;4367182;32;32452;-84
2022/08/27 08:46:45;;;;;;;;;;;;;;;31.51;32.26;99349.12;4366902;32;32772;-84
2022/08/27 08:49:35;;;;;;;;;;;;;;;31.77;31.60;99345.50;4375591;32;35096;-85
2022/08/27 08:52:23;;;;;;;;;;;;;;;32.07;29.99;99342.25;4370540;32;33361;-84
2022/08/27 08:55:05;;;;;;;;;;;;;;;32.05;28.86;99349.81;4377295;32;32462;-84
2022/08/27 08:57:39;;;;;;;;;;;;;;;32.52;29.06;99342.22;4379455;32;34603;-84
2022/08/27 09:00:11;;;;;;;;;;;;;;;32.45;30.45;99344.16;4367191;32;33544;-84
2022/08/27 09:02:44;;;;;;;;;;;;;;;32.24;28.68;99337.97;4366716;32;33694;-84
2022/08/27 09:05:21;;;;;;;;;;;;;;;32.25;27.38;99347.00;4365821;32;33162;-85
2022/08/27 09:07:57;;;;;;;;;;;;;;;32.42;27.54;99342.69;4379721;32;33777;-84
2022/08/27 09:10:48;;;;;;;;;;;;;;;32.87;26.76;99345.34;4368523;32;33872;-84
2022/08/27 09:13:20;;;;;;;;;;;;;;;33.04;26.62;99337.44;4378845;32;34166;-84
2022/08/27 09:15:57;;;;;;;;;;;;;;;33.21;26.47;99334.97;4368492;32;33649;-84
2022/08/27 09:18:29;;;;;;;;;;;;;;;32.97;27.92;99334.75;4378987;32;34491;-85
2022/08/27 09:21:02;;;;;;;;;;;;;;;33.21;26.63;99326.75;4366482;32;32966;-84
2022/08/27 09:23:53;;;;;;;;;;;;;;;33.28;28.41;99328.38;4379769;32;34831;-84
2022/08/27 09:26:23;;;;;;;;;;;;;;;33.05;28.70;99325.44;4366690;32;32714;-84
2022/08/27 09:29:15;;;;;;;;;;;;;;;33.55;26.39;99319.91;4378830;32;32964;-84
2022/08/27 09:31:45;;;;;;;;;;;;;;;33.23;26.42;99319.97;4367793;32;34327;-84
2022/08/27 09:34:17;;;;;;;;;;;;;;;33.93;25.12;99311.44;4379001;32;34189;-85
2022/08/27 09:36:59;;;;;;;;;;;;;;;33.60;25.44;99312.66;4367978;32;33136;-84
2022/08/27 09:39:34;;;;;;;;;;;;;;;34.13;26.27;99305.72;4379606;32;34889;-85
2022/08/27 09:42:04;;;;;;;;;;;;;;;33.95;24.41;99308.50;4378536;32;34347;-84
2022/08/27 09:44:43;;;;;;;;;;;;;;;33.44;25.66;99306.97;4379004;32;34468;-85
2022/08/27 09:47:13;;;;;;;;;;;;;;;33.80;26.81;99311.59;4378820;32;33484;-85
2022/08/27 09:49:41;;;;;;;;;;;;;;;33.86;25.63;99306.06;4378590;32;34137;-85
2022/08/27 09:52:10;;;;;;;;;;;;;;;33.47;26.21;99310.09;4366195;32;34445;-85
2022/08/27 09:54:40;;;;;;;;;;;;;;;33.59;23.56;99312.91;4378046;32;33547;-85
2022/08/27 09:57:11;;;;;;;;;;;;;;;33.70;24.28;99305.81;4366559;32;32742;-85
2022/08/27 09:59:50;;;;;;;;;;;;;;;34.15;24.37;99309.06;4378388;32;34165;-85
2022/08/27 10:02:20;;;;;;;;;;;;;;;34.83;22.33;99289.47;4367891;32;33041;-85
2022/08/27 10:04:51;;;;;;;;;;;;;;;35.16;21.57;99296.31;4380593;32;37162;-85
2022/08/27 10:07:32;;;;;;;;;;;;;;;35.08;21.92;99297.50;4368022;32;31964;-85
2022/08/27 10:10:04;;;;;;;;;;;;;;;34.58;24.59;99305.28;4368263;32;34141;-85
2022/08/27 10:12:40;;;;;;;;;;;;;;;35.38;22.06;99304.78;4366565;32;33365;-84
2022/08/27 10:15:17;;;;;;;;;;;;;;;35.49;21.00;99303.12;4373813;32;35275;-85
2022/08/27 10:17:51;;;;;;;;;;;;;;;35.57;20.83;99300.84;4360805;32;33318;-85
2022/08/27 10:20:42;;;;;;;;;;;;;;;35.73;21.60;99299.22;4390334;32;33242;-85
2022/08/27 10:23:19;;;;;;;;;;;;;;;35.90;21.15;99294.66;4392503;32;34711;-85
2022/08/27 10:25:47;;;;;;;;;;;;;;;35.97;20.23;99296.44;4380345;32;34219;-85
2022/08/27 10:28:20;;;;;;;;;;;;;;;35.89;21.26;99303.97;4371305;32;33034;-84
2022/08/27 10:30:52;;;;;;;;;;;;;;;35.67;22.64;99294.72;4380366;32;33419;-85
2022/08/27 10:33:31;;;;;;;;;;;;;;;35.66;22.04;99295.81;4380324;32;35123;-85
2022/08/27 10:36:24;;;;;;;;;;;;;;;35.46;21.59;99298.91;4388823;32;34152;-85
2022/08/27 10:39:13;;;;;;;;;;;;;;;35.11;21.84;99296.19;4372664;32;34151;-84
2022/08/27 10:42:07;;;;;;;;;;;;;;;35.44;20.84;99298.31;4374461;32;34032;-85
2022/08/27 10:44:45;;;;;;;;;;;;;;;35.66;22.19;99301.28;4344339;32;35008;-85
2022/08/27 10:47:35;;;;;;;;;;;;;;;35.87;20.91;99297.88;4379156;32;33861;-84
2022/08/27 10:50:05;;;;;;;;;;;;;;;35.74;23.79;99295.41;4367118;32;33290;-84
2022/08/27 10:52:34;;;;;;;;;;;;;;;36.24;20.52;99294.78;4370266;32;33822;-85
2022/08/27 10:55:03;;;;;;;;;;;;;;;36.05;21.18;99287.81;4374776;32;33473;-85
2022/08/27 10:57:49;;;;;;;;;;;;;;;36.64;20.98;99285.59;4391351;32;34758;-84
2022/08/27 11:00:54;;;;;;;;;;;;;;;36.64;19.42;99293.84;4372380;32;33273;-84
2022/08/27 11:03:30;;;;;;;;;;;;;;;36.50;19.94;99292.50;4378534;32;33140;-84
2022/08/27 11:06:27;;;;;;;;;;;;;;;36.25;20.06;99279.94;4380778;32;33570;-84
2022/08/27 11:09:02;;;;;;;;;;;;;;;35.94;22.17;99289.50;4382488;32;34322;-84
2022/08/27 11:11:41;;;;;;;;;;;;;;;36.22;20.04;99285.91;4380050;32;31952;-84
2022/08/27 11:14:31;;;;;;;;;;;;;;;36.27;20.55;99288.75;4382130;32;34233;-84
2022/08/27 11:17:12;;;;;;;;;;;;;;;35.94;22.94;99273.03;4367354;32;33423;-85
2022/08/27 11:19:58;;;;;;;;;;;;;;;36.58;21.18;99275.59;4367761;32;35130;-85
2022/08/27 11:22:30;;;;;;;;;;;;;;;36.31;22.36;99276.19;4367655;32;33466;-85
2022/08/27 11:25:01;;;;;;;;;;;;;;;36.76;22.25;99275.34;4379611;32;32627;-85
2022/08/27 11:27:36;;;;;;;;;;;;;;;37.25;19.98;99270.03;4372514;32;33546;-84
2022/08/27 11:30:27;;;;;;;;;;;;;;;36.86;23.50;99275.50;4380479;32;34178;-85
2022/08/27 11:33:18;;;;;;;;;;;;;;;37.06;21.50;99268.66;4371254;32;32670;-85
2022/08/27 11:35:57;;;;;;;;;;;;;;;37.07;24.73;99275.84;4365823;32;32700;-85
2022/08/27 11:38:33;;;;;;;;;;;;;;;37.35;19.95;99261.09;4378385;32;33445;-85
2022/08/27 11:41:26;;;;;;;;;;;;;;;37.48;20.48;99265.44;4379375;32;33196;-84
2022/08/27 11:43:54;;;;;;;;;;;;;;;37.73;20.13;99257.47;4391469;32;32831;-84
2022/08/27 11:46:24;;;;;;;;;;;;;;;37.48;21.15;99262.69;4380115;32;34362;-85
2022/08/27 11:48:57;;;;;;;;;;;;;;;37.50;21.17;99249.47;4366979;32;34031;-84
2022/08/27 11:51:35;;;;;;;;;;;;;;;37.27;21.45;99254.13;4367124;32;33167;-85
2022/08/27 11:54:07;;;;;;;;;;;;;;;37.27;23.31;99251.38;4372447;32;32424;-86
2022/08/27 11:56:40;;;;;;;;;;;;;;;37.55;20.93;99249.53;4361933;32;33963;-85
2022/08/27 11:59:22;;;;;;;;;;;;;;;37.47;25.53;99247.25;4356765;32;32886;-84
2022/08/27 12:01:51;;;;;;;;;;;;;;;37.42;21.54;99240.59;4368986;32;33656;-84
2022/08/27 12:04:21;;;;;;;;;;;;;;;38.04;19.18;99238.56;4379441;32;34065;-85
2022/08/27 12:07:00;;;;;;;;;;;;;;;38.04;20.33;99239.37;4390378;32;34190;-84
2022/08/27 12:09:42;;;;;;;;;;;;;;;37.79;20.13;99236.31;4374004;32;33469;-85
2022/08/27 12:12:15;;;;;;;;;;;;;;;37.50;21.12;99235.69;4355001;32;32796;-84
2022/08/27 12:17:37;;;;;;;;;;;;;;;37.48;20.53;99221.38;4374903;32;34010;-85
2022/08/27 12:20:17;;;;;;;;;;;;;;;37.25;20.77;99219.66;4374352;32;33264;-84
2022/08/27 12:26:02;;;;;;;;;;;;;;;37.38;20.69;99217.41;4391902;32;33297;-84
2022/08/27 12:28:32;;;;;;;;;;;;;;;37.11;20.26;99220.03;4378362;32;33912;-85
2022/08/27 12:31:05;;;;;;;;;;;;;;;36.76;23.73;99225.00;4378557;32;33126;-84
2022/08/27 12:33:34;;;;;;;;;;;;;;;37.28;20.34;99211.72;4379039;32;33607;-84
2022/08/27 12:36:12;;;;;;;;;;;;;;;37.57;20.32;99214.31;4374632;32;34231;-84
2022/08/27 12:38:57;;;;;;;;;;;;;;;37.63;19.73;99211.34;4380114;32;34412;-84
2022/08/27 12:41:36;;;;;;;;;;;;;;;37.29;19.91;99209.81;4366606;32;34782;-85
2022/08/27 12:44:15;;;;;;;;;;;;;;;37.28;21.31;99206.22;4367264;32;33865;-84
2022/08/27 12:46:51;;;;;;;;;;;;;;;37.36;20.38;99203.00;4378560;32;33937;-84
2022/08/27 12:49:23;;;;;;;;;;;;;;;37.24;19.92;99205.06;4379334;32;34293;-84
2022/08/27 12:52:00;;;;;;;;;;;;;;;37.04;21.44;99191.06;4380445;32;34087;-85
2022/08/27 12:54:50;;;;;;;;;;;;;;;37.09;23.03;99193.87;4366355;32;33454;-85
2022/08/27 12:57:29;;;;;;;;;;;;;;;37.46;22.02;99199.59;4379997;32;34027;-84
2022/08/27 13:00:12;;;;;;;;;;;;;;;37.23;19.56;99191.56;4378995;32;34192;-85
2022/08/27 13:02:44;;;;;;;;;;;;;;;37.40;21.33;99193.19;4378859;32;33139;-84
2022/08/27 13:05:16;;;;;;;;;;;;;;;37.37;20.44;99190.97;4390977;32;33176;-85
2022/08/27 13:07:49;;;;;;;;;;;;;;;37.90;21.11;99188.53;4366335;32;32172;-85
2022/08/27 13:10:20;;;;;;;;;;;;;;;38.00;20.70;99191.38;4370097;32;34265;-85
2022/08/27 13:13:00;;;;;;;;;;;;;;;38.02;22.44;99189.19;4376858;32;34294;-85
2022/08/27 13:15:29;;;;;;;;;;;;;;;38.10;21.04;99190.66;4378423;32;35063;-85
2022/08/27 13:18:02;;;;;;;;;;;;;;;37.73;21.85;99187.78;4366288;32;34212;-85
2022/08/27 13:20:35;;;;;;;;;;;;;;;37.77;21.74;99189.75;4365772;32;34208;-84
2022/08/27 13:23:06;;;;;;;;;;;;;;;38.35;19.96;99184.53;4364735;32;32785;-85
2022/08/27 13:25:36;;;;;;;;;;;;;;;38.28;22.02;99182.00;4377736;32;33545;-85
2022/08/27 13:28:12;;;;;;;;;;;;;;;38.42;19.42;99183.25;4378873;32;31636;-85
2022/08/27 13:30:45;;;;;;;;;;;;;;;37.69;21.08;99179.19;4378598;32;34851;-85
2022/08/27 13:33:15;;;;;;;;;;;;;;;37.33;22.95;99186.19;4378309;32;34009;-85